Time;durP1;ratioP1;P1;durP2;ratioP2;P2;SDS_P1;SDS_P2;PMS_P1;PMS_P2;Temp;Humidity;BMP_temperature;BMP_pressure;BME280_temperature;BME280_humidity;BME280_pressure;Samples;Min_cycle;Max_cycle;Signal;HPM_P1;HPM_P2
2021/09/06 00:02:21;;;;;;;;;20.25;17.50;;;;;27.50;44.90;101240.13;5018281;28;45194;-82
2021/09/06 00:04:47;;;;;;;;;26.00;22.75;;;;;27.48;45.17;101230.44;5021133;28;45300;-82
2021/09/06 00:07:12;;;;;;;;;23.50;23.00;;;;;27.54;44.94;101241.72;5018313;28;46637;-82
2021/09/06 00:09:41;;;;;;;;;24.00;23.25;;;;;27.58;45.41;101245.94;5055033;28;45307;-82
2021/09/06 00:12:08;;;;;;;;;24.25;22.75;;;;;27.58;45.10;101240.59;5038182;28;45333;-82
2021/09/06 00:14:34;;;;;;;;;21.25;21.25;;;;;27.61;45.07;101244.91;5039745;28;45185;-80
2021/09/06 00:16:59;;;;;;;;;23.25;20.75;;;;;27.55;45.60;101226.50;5054958;28;45300;-80
2021/09/06 00:19:25;;;;;;;;;27.00;25.75;;;;;27.55;45.27;101227.34;5038196;28;45423;-80
2021/09/06 00:21:51;;;;;;;;;26.75;25.75;;;;;27.60;45.32;101232.44;5039412;28;45229;-80
2021/09/06 00:24:16;;;;;;;;;22.75;22.75;;;;;27.61;44.95;101236.88;5039560;28;45297;-80
2021/09/06 00:26:42;;;;;;;;;19.00;18.75;;;;;27.61;44.68;101242.22;5037690;28;54116;-80
2021/09/06 00:29:07;;;;;;;;;23.75;21.00;;;;;27.55;44.95;101235.41;5021099;28;46839;-80
2021/09/06 00:31:33;;;;;;;;;34.25;31.25;;;;;27.51;44.59;101224.91;5055006;28;45519;-80
2021/09/06 00:33:58;;;;;;;;;25.75;23.75;;;;;27.57;44.59;101238.00;5037962;28;45435;-80
2021/09/06 00:36:24;;;;;;;;;26.25;23.00;;;;;27.58;44.58;101240.59;5038265;28;45320;-80
2021/09/06 00:38:49;;;;;;;;;21.25;20.75;;;;;27.58;44.88;101243.25;5037551;28;50720;-80
2021/09/06 00:41:15;;;;;;;;;22.00;22.00;;;;;27.54;44.67;101239.03;5037996;28;45457;-80
2021/09/06 00:43:42;;;;;;;;;26.75;24.25;;;;;27.55;44.51;101238.06;5037754;28;45273;-81
2021/09/06 00:46:08;;;;;;;;;21.75;21.50;;;;;27.46;44.36;101229.66;5054425;28;45529;-81
2021/09/06 00:48:34;;;;;;;;;22.00;20.75;;;;;27.46;45.10;101233.22;5038376;28;53948;-81
2021/09/06 00:50:59;;;;;;;;;22.00;20.25;;;;;27.52;44.75;101238.22;5038000;28;45435;-80
2021/09/06 00:53:24;;;;;;;;;24.25;23.50;;;;;27.51;44.78;101235.63;5037290;28;49646;-81
2021/09/06 00:55:50;;;;;;;;;22.25;22.00;;;;;27.48;45.10;101236.66;5037250;28;57018;-81
2021/09/06 00:58:16;;;;;;;;;19.25;18.50;;;;;27.52;44.91;101242.72;5020572;28;47213;-81
2021/09/06 01:00:41;;;;;;;;;23.50;21.00;;;;;27.46;45.02;101235.88;5058135;28;45190;-81
2021/09/06 01:03:07;;;;;;;;;24.75;21.50;;;;;27.56;44.79;101249.66;5037372;28;46568;-81
2021/09/06 01:05:32;;;;;;;;;25.25;23.00;;;;;27.56;45.06;101250.53;5022485;28;48531;-80
2021/09/06 01:07:58;;;;;;;;;20.75;19.25;;;;;27.54;44.70;101249.75;5061207;28;51444;-81
2021/09/06 01:10:23;;;;;;;;;21.50;20.25;;;;;27.50;44.96;101237.44;5062503;28;45419;-81
2021/09/06 01:12:49;;;;;;;;;21.00;20.50;;;;;27.58;44.57;101245.94;5061237;28;45336;-81
2021/09/06 01:15:14;;;;;;;;;23.00;21.25;;;;;27.58;44.71;101247.75;5044244;28;46074;-81
2021/09/06 01:17:40;;;;;;;;;22.00;20.75;;;;;27.51;44.87;101239.19;5061863;28;46117;-80
2021/09/06 01:20:06;;;;;;;;;23.75;21.25;;;;;27.54;44.84;101235.44;5044287;28;45465;-80
2021/09/06 01:22:31;;;;;;;;;20.25;20.25;;;;;27.49;45.09;101227.69;5043971;28;45434;-81
2021/09/06 01:24:57;;;;;;;;;23.00;18.75;;;;;27.46;44.59;101218.94;5062100;28;45475;-80
2021/09/06 01:27:22;;;;;;;;;20.25;19.25;;;;;27.58;44.48;101243.25;5043265;28;58607;-81
2021/09/06 01:29:47;;;;;;;;;24.50;23.25;;;;;27.53;44.72;101228.34;5061548;28;54430;-80
2021/09/06 01:32:13;;;;;;;;;22.00;22.00;;;;;27.58;44.76;101247.75;5044015;28;45585;-80
2021/09/06 01:34:38;;;;;;;;;21.25;21.00;;;;;27.48;44.96;101223.25;5043772;28;46550;-81
2021/09/06 01:37:04;;;;;;;;;25.25;23.00;;;;;27.57;44.55;101244.22;5061732;28;45397;-81
2021/09/06 01:39:29;;;;;;;;;22.25;21.50;;;;;27.53;45.10;101234.59;5061972;28;45228;-81
2021/09/06 01:41:55;;;;;;;;;23.75;20.25;;;;;27.51;45.33;101232.94;5043643;28;45545;-81
2021/09/06 01:44:20;;;;;;;;;20.25;19.50;;;;;27.54;45.25;101241.72;5043705;28;45583;-80
2021/09/06 01:46:46;;;;;;;;;21.75;20.00;;;;;27.50;45.38;101236.56;5043418;28;47354;-81
2021/09/06 01:49:11;;;;;;;;;19.75;19.25;;;;;27.54;45.08;101244.41;5027231;28;45231;-81
2021/09/06 01:51:37;;;;;;;;;21.00;20.00;;;;;27.55;44.51;101247.94;5061889;28;45514;-80
2021/09/06 01:54:02;;;;;;;;;20.25;20.25;;;;;27.44;44.96;101247.63;5060636;28;45505;-80
2021/09/06 01:56:27;;;;;;;;;22.00;20.00;;;;;27.49;45.29;101249.13;5043375;28;48155;-81
2021/09/06 01:58:53;;;;;;;;;23.75;22.00;;;;;27.43;45.24;101241.41;5043299;28;45308;-81
2021/09/06 02:01:19;;;;;;;;;22.25;20.25;;;;;27.38;44.45;101242.59;5040108;28;45395;-80
2021/09/06 02:03:44;;;;;;;;;25.00;20.75;;;;;27.37;44.85;101243.56;5051631;28;45493;-80
2021/09/06 02:06:10;;;;;;;;;22.50;18.00;;;;;27.41;45.05;101251.34;5059992;28;46241;-80
2021/09/06 02:08:35;;;;;;;;;23.50;21.00;;;;;27.43;45.14;101246.75;5040161;28;45327;-81
2021/09/06 02:11:01;;;;;;;;;23.25;21.00;;;;;27.47;45.02;101258.19;5057654;28;50216;-81
2021/09/06 02:13:26;;;;;;;;;18.75;17.25;;;;;27.43;45.05;101245.88;5061412;28;45472;-81
2021/09/06 02:15:52;;;;;;;;;22.25;22.25;;;;;27.41;44.79;101232.56;5061108;28;45365;-81
2021/09/06 02:18:17;;;;;;;;;22.25;21.00;;;;;27.39;44.52;101226.44;5061259;28;45375;-81
2021/09/06 02:20:43;;;;;;;;;22.75;18.25;;;;;27.43;45.27;101232.50;5061363;28;45415;-80
2021/09/06 02:23:08;;;;;;;;;19.75;18.50;;;;;27.50;44.87;101247.31;5043542;28;45245;-80
2021/09/06 02:25:34;;;;;;;;;22.00;19.75;;;;;27.46;44.08;101243.94;5043220;28;48184;-81
2021/09/06 02:27:59;;;;;;;;;21.50;19.00;;;;;27.38;44.72;101229.22;5043395;28;45446;-81
2021/09/06 02:30:24;;;;;;;;;20.25;19.75;;;;;27.49;44.49;101254.47;5061335;28;45154;-81
2021/09/06 02:32:50;;;;;;;;;21.00;19.50;;;;;27.50;44.79;101260.72;5060547;28;58443;-81
2021/09/06 02:35:16;;;;;;;;;24.00;21.75;;;;;27.50;44.34;101255.34;5059902;28;46579;-81
2021/09/06 02:37:41;;;;;;;;;19.00;19.00;;;;;27.50;44.38;101256.22;5042985;28;45459;-81
2021/09/06 02:40:07;;;;;;;;;20.75;20.75;;;;;27.52;44.46;101259.66;5060824;28;48246;-81
2021/09/06 02:42:32;;;;;;;;;23.25;22.00;;;;;27.46;43.98;101246.63;5042901;28;45284;-80
2021/09/06 02:44:58;;;;;;;;;23.00;21.75;;;;;27.46;44.10;101248.44;5060870;28;46391;-81
2021/09/06 02:47:23;;;;;;;;;23.00;21.50;;;;;27.47;43.76;101248.34;5060991;28;45387;-81
2021/09/06 02:49:49;;;;;;;;;20.25;20.25;;;;;27.53;43.79;101261.41;5042845;28;45439;-81
2021/09/06 02:52:14;;;;;;;;;19.25;17.50;;;;;27.46;43.49;101257.34;5042885;28;45798;-81
2021/09/06 02:54:40;;;;;;;;;21.25;20.00;;;;;27.48;43.85;101260.78;5060641;28;45397;-81
2021/09/06 02:57:05;;;;;;;;;18.00;18.00;;;;;27.46;43.29;101256.47;5042732;28;46742;-81
2021/09/06 02:59:31;;;;;;;;;22.75;20.75;;;;;27.45;43.63;101258.25;5042445;28;45312;-81
2021/09/06 03:01:56;;;;;;;;;18.25;17.25;;;;;27.44;43.68;101269.94;5060423;28;45509;-81
2021/09/06 03:04:21;;;;;;;;;17.25;16.25;;;;;27.49;43.32;101269.72;5042317;28;51594;-80
2021/09/06 03:06:47;;;;;;;;;22.50;20.25;;;;;27.40;43.47;101260.34;5058945;28;54976;-80
2021/09/06 03:09:12;;;;;;;;;21.00;21.00;;;;;27.41;43.72;101255.84;5042423;28;52632;-80
2021/09/06 03:11:38;;;;;;;;;20.25;20.25;;;;;27.45;43.47;101263.63;5060649;28;45513;-81
2021/09/06 03:14:03;;;;;;;;;21.00;19.00;;;;;27.45;43.63;101263.63;5042279;28;46156;-81
2021/09/06 03:16:29;;;;;;;;;22.50;19.75;;;;;27.43;44.05;101270.03;5042167;28;56466;-81
2021/09/06 03:18:54;;;;;;;;;19.50;17.50;;;;;27.40;44.26;101262.16;5042466;28;45455;-81
2021/09/06 03:21:20;;;;;;;;;20.75;19.00;;;;;27.43;43.92;101262.84;5042457;28;46009;-81
2021/09/06 03:23:45;;;;;;;;;18.75;18.75;;;;;27.41;43.83;101267.44;5042428;28;48378;-81
2021/09/06 03:26:11;;;;;;;;;23.50;21.25;;;;;27.43;43.96;101267.34;5059210;28;45441;-81
2021/09/06 03:28:36;;;;;;;;;18.50;18.50;;;;;27.34;43.90;101252.59;5058698;28;45331;-81
2021/09/06 03:31:03;;;;;;;;;18.75;16.75;;;;;27.39;43.65;101255.06;5060457;28;45174;-81
2021/09/06 03:33:28;;;;;;;;;20.25;19.25;;;;;27.43;43.77;101257.47;5060117;28;45579;-81
2021/09/06 03:35:54;;;;;;;;;21.00;19.75;;;;;27.37;42.98;101257.81;5042221;28;45446;-81
2021/09/06 03:38:19;;;;;;;;;17.50;17.50;;;;;27.37;43.40;101265.88;5041621;28;45547;-81
2021/09/06 03:40:44;;;;;;;;;20.25;20.25;;;;;27.37;43.09;101265.88;5042312;28;45733;-80
2021/09/06 03:43:10;;;;;;;;;19.50;19.00;;;;;27.31;43.32;101255.47;5041456;28;65916;-80
2021/09/06 03:45:35;;;;;;;;;23.50;22.75;;;;;27.34;43.12;101263.31;5042346;28;45328;-80
2021/09/06 03:48:01;;;;;;;;;17.75;17.00;;;;;27.30;43.12;101251.03;5041697;28;46907;-81
2021/09/06 03:50:26;;;;;;;;;24.25;21.25;;;;;27.30;43.53;101259.94;5059924;28;52538;-81
2021/09/06 03:52:52;;;;;;;;;21.25;19.75;;;;;27.14;43.61;101244.75;5041594;28;51749;-81
2021/09/06 03:55:18;;;;;;;;;18.75;17.75;;;;;27.13;43.48;101251.91;5060188;28;45410;-81
2021/09/06 03:57:44;;;;;;;;;23.25;19.50;;;;;27.15;44.04;101259.88;5060375;28;45335;-80
2021/09/06 04:00:09;;;;;;;;;19.25;18.25;;;;;27.13;44.02;101261.78;5041915;28;45553;-80
2021/09/06 04:02:35;;;;;;;;;31.00;26.50;;;;;27.09;44.01;101257.50;5040205;28;45270;-81
2021/09/06 04:05:00;;;;;;;;;22.00;22.00;;;;;27.00;43.88;101245.41;5041865;28;45250;-80
2021/09/06 04:07:26;;;;;;;;;20.50;19.00;;;;;27.04;44.18;101257.75;5059664;28;45149;-81
2021/09/06 04:09:51;;;;;;;;;22.25;20.00;;;;;26.94;44.48;101251.09;5060035;28;45386;-80
2021/09/06 04:12:17;;;;;;;;;24.00;23.00;;;;;26.95;44.78;101259.06;5041625;28;47596;-81
2021/09/06 04:14:42;;;;;;;;;22.75;21.75;;;;;26.96;44.39;101260.78;5059838;28;45162;-80
2021/09/06 04:17:08;;;;;;;;;21.75;20.50;;;;;26.92;44.20;101261.00;5059706;28;45244;-80
2021/09/06 04:19:33;;;;;;;;;22.00;20.25;;;;;26.88;44.64;101251.41;5058566;28;45494;-81
2021/09/06 04:21:59;;;;;;;;;22.00;20.50;;;;;26.85;44.97;101268.50;5039602;28;60963;-80
2021/09/06 04:24:24;;;;;;;;;21.50;20.25;;;;;26.90;44.59;101265.59;5041664;28;45322;-81
2021/09/06 04:26:50;;;;;;;;;26.00;23.25;;;;;26.75;45.27;101240.44;5059758;28;45453;-81
2021/09/06 04:29:16;;;;;;;;;24.50;24.50;;;;;26.87;45.12;101268.44;5041575;28;45347;-80
2021/09/06 04:31:41;;;;;;;;;25.50;23.00;;;;;26.85;45.32;101264.97;5041075;28;46036;-80
2021/09/06 04:34:07;;;;;;;;;22.00;22.00;;;;;26.78;44.96;101264.41;5059642;28;45348;-81
2021/09/06 04:36:32;;;;;;;;;23.50;23.25;;;;;26.77;45.63;101263.53;5058410;28;45881;-81
2021/09/06 04:38:58;;;;;;;;;21.75;21.75;;;;;26.77;45.35;101262.66;5058962;28;55320;-81
2021/09/06 04:41:23;;;;;;;;;22.00;19.75;;;;;26.78;45.58;101269.75;5062085;28;45675;-81
2021/09/06 04:43:48;;;;;;;;;21.75;19.75;;;;;26.83;45.56;101286.44;5044799;28;45201;-81
2021/09/06 04:46:14;;;;;;;;;23.00;21.50;;;;;26.80;45.49;101283.94;5063129;28;45337;-81
2021/09/06 04:48:40;;;;;;;;;24.25;22.25;;;;;26.76;45.70;101285.03;5045589;28;45358;-81
2021/09/06 04:51:05;;;;;;;;;22.75;22.50;;;;;26.75;46.27;101284.16;5045731;28;53164;-81
2021/09/06 04:53:31;;;;;;;;;25.00;22.00;;;;;26.80;46.32;101293.78;5062434;28;56283;-81
2021/09/06 04:55:56;;;;;;;;;24.00;24.00;;;;;26.78;46.11;101293.84;5062929;28;45731;-80
2021/09/06 04:58:22;;;;;;;;;20.00;19.25;;;;;26.82;46.49;101298.09;5061448;28;45530;-80
2021/09/06 05:00:47;;;;;;;;;22.00;21.25;;;;;26.84;46.43;101288.19;5061249;28;45446;-81
2021/09/06 05:03:12;;;;;;;;;27.00;25.00;;;;;26.92;46.52;101298.50;5061319;28;45368;-82
2021/09/06 05:05:38;;;;;;;;;24.75;22.00;;;;;26.89;46.60;101288.81;5044735;28;45293;-81
2021/09/06 05:08:04;;;;;;;;;22.75;20.75;;;;;26.98;46.40;101293.72;5062398;28;48649;-81
2021/09/06 05:10:38;;;;;;;;;24.25;22.25;;;;;27.04;46.63;101304.16;5062413;28;45552;-85
2021/09/06 05:13:07;;;;;;;;;25.50;22.00;;;;;26.98;47.22;101285.69;5062623;28;45312;-85
2021/09/06 05:15:32;;;;;;;;;25.00;22.00;;;;;27.06;47.10;101296.03;5045194;28;45392;-84
2021/09/06 05:17:58;;;;;;;;;24.25;24.25;;;;;27.12;47.17;101302.91;5045796;28;45898;-86
2021/09/06 05:20:24;;;;;;;;;26.75;24.75;;;;;27.15;46.92;101298.25;5044060;28;45345;-91
2021/09/06 05:22:49;;;;;;;;;23.75;23.00;;;;;27.20;46.73;101296.22;5044505;28;45237;-86
2021/09/06 05:25:14;;;;;;;;;27.75;25.75;;;;;27.19;46.64;101296.28;5023207;28;45233;-86
2021/09/06 05:27:42;;;;;;;;;20.75;20.25;;;;;27.28;46.63;101307.41;5062374;28;45234;-88
2021/09/06 05:30:08;;;;;;;;;27.75;23.25;;;;;27.29;46.70;101308.28;5044592;28;48608;-85
2021/09/06 05:32:34;;;;;;;;;27.25;25.75;;;;;27.29;46.74;101306.47;5041607;28;45513;-91
2021/09/06 05:35:06;;;;;;;;;25.50;23.50;;;;;27.35;46.80;101316.00;5020437;28;45415;-87
2021/09/06 05:37:37;;;;;;;;;28.00;23.50;;;;;27.40;45.99;101323.81;5023872;28;45187;-84
2021/09/06 05:40:20;;;;;;;;;26.75;25.50;;;;;27.45;45.74;101345.88;5058486;28;46218;-81
2021/09/06 05:42:51;;;;;;;;;23.25;22.00;;;;;27.29;45.62;101321.69;5043862;28;45639;-84
2021/09/06 05:45:24;;;;;;;;;29.25;25.00;;;;;27.36;45.63;101346.34;5043906;28;45302;-85
2021/09/06 05:47:53;;;;;;;;;24.50;22.00;;;;;27.31;45.13;101344.78;5043792;28;45373;-84
2021/09/06 05:50:36;;;;;;;;;24.00;22.25;;;;;27.28;44.93;101338.72;5043687;28;48345;-86
2021/09/06 05:53:11;;;;;;;;;;;;;;;;;;;;;
2021/09/06 05:55:37;;;;;;;;;25.25;23.00;;;;;27.26;45.12;101333.41;5065674;28;68792;-85
2021/09/06 05:58:03;;;;;;;;;28.00;23.25;;;;;27.27;44.85;101351.22;5043572;28;45518;-84
2021/09/06 06:00:28;;;;;;;;;24.75;21.75;;;;;27.40;45.20;101366.69;5043526;28;47395;-84
2021/09/06 06:02:54;;;;;;;;;22.25;21.25;;;;;27.37;44.97;101366.88;5039477;28;53809;-81
2021/09/06 06:05:22;;;;;;;;;25.00;24.50;;;;;27.29;45.15;101353.84;5052637;28;46040;-82
2021/09/06 06:08:00;;;;;;;;;;;;;;;;;;;;;
2021/09/06 06:11:05;;;;;;;;;;;;;;;;;;;;;
2021/09/06 06:14:10;;;;;;;;;;;;;;;;;;;;;
2021/09/06 06:21:22;;;;;;;;;;;;;;;;;;;;;
2021/09/06 06:27:57;;;;;;;;;;;;;;;;;;;;;
2021/09/06 06:31:19;;;;;;;;;;;;;;;;;;;;;
2021/09/06 06:52:17;;;;;;;;;;;;;;;;;;;;;
2021/09/06 07:01:11;;;;;;;;;23.00;21.75;;;;;27.40;43.23;101377.44;4775086;29;45837;-84
2021/09/06 07:03:39;;;;;;;;;24.75;24.75;;;;;27.44;43.61;101389.72;4918572;28;48202;-79
2021/09/06 07:06:05;;;;;;;;;23.25;22.25;;;;;27.58;43.82;101409.53;4944544;28;45373;-81
2021/09/06 07:08:30;;;;;;;;;27.00;22.75;;;;;27.53;44.39;101397.28;4978351;28;47448;-81
2021/09/06 07:10:56;;;;;;;;;23.50;20.00;;;;;27.58;45.18;101395.25;5020438;28;45431;-92
2021/09/06 07:13:21;;;;;;;;;29.75;28.25;;;;;27.66;46.27;101394.84;5032979;28;45491;-83
2021/09/06 07:15:47;;;;;;;;;28.25;23.75;;;;;27.77;47.77;101408.59;5060218;28;45429;-81
2021/09/06 07:18:12;;;;;;;;;28.50;25.25;;;;;27.83;48.77;101413.66;5038892;28;45598;-75
2021/09/06 07:20:40;;;;;;;;;29.25;25.50;;;;;27.84;48.71;101407.34;5056727;28;50502;-79
2021/09/06 07:23:06;;;;;;;;;27.25;22.00;;;;;27.88;49.71;101406.22;5043107;28;47538;-82
2021/09/06 07:25:31;;;;;;;;;23.25;23.25;;;;;27.97;50.09;101420.97;5042536;28;45194;-84
2021/09/06 07:27:57;;;;;;;;;26.50;24.00;;;;;27.98;50.10;101418.22;5042494;28;45311;-80
2021/09/06 07:30:28;;;;;;;;;23.00;23.00;;;;;27.98;50.07;101412.88;5061222;28;45375;-84
2021/09/06 07:33:06;;;;;;;;;;;;;;;;;;;;;
2021/09/06 07:39:16;;;;;;;;;;;;;;;;;;;;;
2021/09/06 07:41:56;;;;;;;;;24.00;22.00;;;;;27.89;44.19;101410.66;4975289;28;72326;-89
2021/09/06 07:44:22;;;;;;;;;20.00;19.50;;;;;27.96;43.68;101425.47;5009514;28;45363;-90
2021/09/06 07:46:57;;;;;;;;;23.75;18.75;;;;;27.87;43.17;101413.41;5026752;28;45277;-89
2021/09/06 07:49:22;;;;;;;;;20.00;20.00;;;;;27.91;43.77;101419.50;5042957;28;45431;-88
2021/09/06 07:51:54;;;;;;;;;19.25;18.75;;;;;27.90;43.38;101423.13;5043567;28;45327;-89
2021/09/06 07:54:26;;;;;;;;;21.25;20.50;;;;;27.93;43.29;101427.47;5043451;28;46450;-88
2021/09/06 07:56:53;;;;;;;;;23.75;20.75;;;;;27.96;43.77;101432.66;5022185;28;45245;-90
2021/09/06 07:59:19;;;;;;;;;22.25;22.25;;;;;27.95;43.00;101423.75;5037911;28;45288;-85
2021/09/06 08:01:44;;;;;;;;;19.75;19.50;;;;;28.01;43.78;101422.56;5038992;28;45549;-89
2021/09/06 08:04:10;;;;;;;;;20.75;20.50;;;;;28.04;42.49;101435.81;5037873;28;45462;-88
2021/09/06 08:06:38;;;;;;;;;22.50;21.00;;;;;28.00;42.48;101427.06;5042009;28;46086;-86
2021/09/06 08:09:04;;;;;;;;;17.50;17.50;;;;;28.11;42.85;101446.13;5013988;28;45396;-86
2021/09/06 08:11:30;;;;;;;;;21.00;18.75;;;;;28.14;42.45;101456.69;5041543;28;45257;-89
2021/09/06 08:13:55;;;;;;;;;19.00;17.75;;;;;28.13;42.07;101448.75;5026876;28;46596;-89
2021/09/06 08:16:21;;;;;;;;;19.50;17.00;;;;;28.18;41.75;101452.06;5046448;28;45269;-87
2021/09/06 08:18:46;;;;;;;;;18.75;17.25;;;;;28.09;41.88;101442.69;5044249;28;45639;-82
2021/09/06 08:21:12;;;;;;;;;22.25;19.50;;;;;28.10;42.20;101443.53;5061946;28;45520;-91
2021/09/06 08:23:37;;;;;;;;;16.50;15.00;;;;;28.11;41.79;101442.59;5033447;28;47943;-87
2021/09/06 08:26:02;;;;;;;;;19.00;17.50;;;;;28.19;41.31;101459.16;5061854;28;45252;-85
2021/09/06 08:28:28;;;;;;;;;20.00;19.25;;;;;28.20;41.66;101460.91;5045178;28;45299;-85
2021/09/06 08:30:53;;;;;;;;;19.25;15.50;;;;;28.15;40.97;101449.56;5063304;28;45565;-86
2021/09/06 08:33:19;;;;;;;;;18.25;15.50;;;;;28.22;40.77;101458.13;5062652;28;46732;-87
2021/09/06 08:35:46;;;;;;;;;17.75;15.75;;;;;28.14;40.70;101445.97;5045136;28;45442;-86
2021/09/06 08:38:12;;;;;;;;;21.50;17.50;;;;;28.19;41.01;101456.47;5044969;28;45324;-85
2021/09/06 08:40:37;;;;;;;;;21.25;19.00;;;;;28.16;41.04;101445.91;5045044;28;45455;-85
2021/09/06 08:43:04;;;;;;;;;20.00;18.00;;;;;28.21;41.01;101451.03;5044891;28;45438;-85
2021/09/06 08:45:29;;;;;;;;;23.50;21.25;;;;;28.19;40.15;101450.25;5044286;28;45487;-83
2021/09/06 08:47:55;;;;;;;;;19.00;16.50;;;;;28.23;41.39;101449.97;5044242;28;45343;-83
2021/09/06 08:50:21;;;;;;;;;17.00;17.00;;;;;28.25;40.81;101458.84;5063998;28;45513;-82
2021/09/06 08:52:46;;;;;;;;;17.75;17.00;;;;;28.19;40.74;101447.56;5047846;28;46079;-83
2021/09/06 08:55:11;;;;;;;;;21.75;17.50;;;;;28.16;40.98;101446.78;5045404;28;45400;-89
2021/09/06 08:57:37;;;;;;;;;21.00;16.00;;;;;28.24;40.85;101456.25;5027114;28;45470;-87
2021/09/06 09:00:04;;;;;;;;;16.50;14.50;;;;;28.27;40.68;101461.44;5060145;28;47363;-85
2021/09/06 09:02:32;;;;;;;;;20.25;19.50;;;;;28.20;40.17;101447.47;5043900;28;47329;-87
2021/09/06 09:04:59;;;;;;;;;18.25;17.00;;;;;28.21;40.74;101453.69;5028039;28;45747;-88
2021/09/06 09:07:28;;;;;;;;;18.75;17.75;;;;;28.26;40.52;101448.97;5044408;28;45263;-86
2021/09/06 09:09:53;;;;;;;;;18.25;18.25;;;;;28.24;40.14;101445.50;5044550;28;45408;-87
2021/09/06 09:12:21;;;;;;;;;16.75;16.25;;;;;28.32;40.09;101456.72;5045615;28;45409;-87
2021/09/06 09:14:57;;;;;;;;;17.25;16.25;;;;;28.28;39.77;101447.06;5044014;28;45674;-85
2021/09/06 09:17:22;;;;;;;;;19.50;17.75;;;;;28.21;40.22;101434.91;5047495;28;45512;-85
2021/09/06 09:19:48;;;;;;;;;18.50;17.75;;;;;28.33;39.82;101448.59;5062274;28;45438;-84
2021/09/06 09:22:29;;;;;;;;;16.50;16.50;;;;;28.29;40.93;101444.31;5061076;28;45352;-85
2021/09/06 09:24:57;;;;;;;;;17.75;15.50;;;;;28.34;40.30;101447.66;5045407;28;45819;-89
2021/09/06 09:27:32;;;;;;;;;21.00;17.25;;;;;28.25;40.34;101434.69;5027019;28;45447;-88
2021/09/06 09:29:58;;;;;;;;;17.50;15.25;;;;;28.33;40.23;101451.28;5027995;28;45683;-86
2021/09/06 09:32:23;;;;;;;;;20.00;17.25;;;;;28.23;39.34;101438.38;5043936;28;46897;-85
2021/09/06 09:34:48;;;;;;;;;16.50;16.00;;;;;28.35;39.64;101454.75;5043730;28;45360;-85
2021/09/06 09:37:23;;;;;;;;;19.25;18.00;;;;;28.32;39.29;101459.41;5043938;28;45541;-86
2021/09/06 09:39:57;;;;;;;;;17.25;17.00;;;;;28.38;39.35;101468.00;5044052;28;45607;-86
2021/09/06 09:42:22;;;;;;;;;17.75;16.25;;;;;28.31;39.91;101455.84;5044547;28;45474;-87
2021/09/06 09:44:49;;;;;;;;;18.50;17.25;;;;;28.36;39.41;101460.97;5043298;28;45380;-86
2021/09/06 09:47:16;;;;;;;;;15.75;15.75;;;;;28.38;39.50;101456.38;5027100;28;45309;-91
2021/09/06 09:49:43;;;;;;;;;19.50;18.75;;;;;28.37;39.21;101458.22;5044933;28;45324;-86
2021/09/06 09:52:09;;;;;;;;;22.50;20.25;;;;;28.39;39.32;101463.50;5027684;28;45462;-88
2021/09/06 09:54:40;;;;;;;;;16.50;16.00;;;;;28.30;39.59;101439.81;5028593;28;45479;-89
2021/09/06 09:57:06;;;;;;;;;17.50;17.00;;;;;28.30;40.60;101435.31;5044353;28;45318;-90
2021/09/06 09:59:32;;;;;;;;;18.50;15.25;;;;;28.32;39.78;101428.06;5020005;28;45937;-95
2021/09/06 10:02:01;;;;;;;;;18.50;18.50;;;;;28.44;39.60;101450.69;5028653;28;47583;-87
2021/09/06 10:04:31;;;;;;;;;18.00;17.75;;;;;28.35;40.34;101433.25;5037828;28;45503;-85
2021/09/06 10:06:57;;;;;;;;;16.50;16.50;;;;;28.44;40.49;101450.69;5040019;28;45243;-88
2021/09/06 10:09:22;;;;;;;;;18.25;17.00;;;;;28.43;39.93;101438.22;5040506;28;45463;-88
2021/09/06 10:11:48;;;;;;;;;16.00;15.25;;;;;28.48;39.53;101446.88;5037199;28;45944;-90
2021/09/06 10:14:19;;;;;;;;;18.00;17.50;;;;;28.44;40.19;101434.59;5046335;28;45415;-89
2021/09/06 10:16:46;;;;;;;;;17.25;16.75;;;;;28.43;40.09;101433.72;5043151;28;45205;-88
2021/09/06 10:19:12;;;;;;;;;18.00;17.75;;;;;28.51;39.88;101441.38;5040336;28;45474;-89
2021/09/06 10:21:46;;;;;;;;;18.25;18.25;;;;;28.47;40.20;101431.72;5040316;28;47222;-84
2021/09/06 10:24:13;;;;;;;;;17.50;15.50;;;;;28.53;40.48;101439.44;5039813;28;45383;-83
2021/09/06 10:26:42;;;;;;;;;19.75;19.75;;;;;28.58;40.28;101445.44;5048243;28;45360;-84
2021/09/06 10:29:20;;;;;;;;;18.25;16.50;;;;;28.60;40.24;101443.53;5028103;28;45431;-84
2021/09/06 10:31:59;;;;;;;;;18.00;17.25;;;;;28.57;40.11;101438.31;5039949;28;45533;-85
2021/09/06 10:34:25;;;;;;;;;18.25;17.50;;;;;28.56;40.24;101436.59;5025222;28;45835;-85
2021/09/06 10:36:58;;;;;;;;;17.75;17.50;;;;;28.59;40.34;101439.13;5023613;28;45443;-84
2021/09/06 10:39:23;;;;;;;;;16.75;15.00;;;;;28.58;39.95;101434.72;5039213;28;45648;-81
2021/09/06 10:41:49;;;;;;;;;17.50;16.50;;;;;28.58;39.53;101437.41;5055969;28;61113;-82
2021/09/06 10:44:15;;;;;;;;;17.75;16.75;;;;;28.56;39.58;101435.72;5039477;28;46236;-83
2021/09/06 10:46:40;;;;;;;;;15.50;14.50;;;;;28.54;39.54;101432.25;5022741;28;45453;-83
2021/09/06 10:49:06;;;;;;;;;17.25;15.75;;;;;28.54;39.93;101421.50;5022435;28;45447;-82
2021/09/06 10:51:33;;;;;;;;;17.75;16.25;;;;;28.47;40.03;101409.38;5039189;28;45439;-82
2021/09/06 10:54:00;;;;;;;;;13.50;13.00;;;;;28.55;39.63;101426.78;5040779;28;45349;-85
2021/09/06 10:56:27;;;;;;;;;18.00;15.25;;;;;28.53;39.92;101417.97;5041252;28;45226;-86
2021/09/06 10:58:54;;;;;;;;;17.25;14.75;;;;;28.55;39.93;101424.13;5039023;28;45412;-82
2021/09/06 11:01:20;;;;;;;;;20.75;18.00;;;;;28.53;39.93;101426.03;5040067;28;45451;-93
2021/09/06 11:03:46;;;;;;;;;19.75;19.00;;;;;28.44;39.64;101411.28;5041072;28;45431;-83
2021/09/06 11:06:11;;;;;;;;;22.00;18.75;;;;;28.48;39.95;101406.59;5021140;28;45420;-89
2021/09/06 11:08:37;;;;;;;;;18.50;17.25;;;;;28.53;39.92;101420.66;5022929;28;45484;-81
2021/09/06 11:11:07;;;;;;;;;21.25;17.25;;;;;28.55;39.46;101424.13;5039323;28;45442;-84
2021/09/06 11:13:47;;;;;;;;;22.50;19.50;;;;;28.47;39.91;101412.91;5039298;28;45303;-82
2021/09/06 11:16:14;;;;;;;;;17.00;16.00;;;;;28.53;39.49;101420.66;5039671;28;45542;-82
2021/09/06 11:18:42;;;;;;;;;18.75;17.75;;;;;28.45;39.57;101406.78;5022493;28;45209;-82
2021/09/06 11:21:08;;;;;;;;;17.75;16.00;;;;;28.52;39.43;101418.91;5022338;28;48154;-82
2021/09/06 11:23:52;;;;;;;;;16.75;15.25;;;;;28.48;39.11;101411.09;5022102;28;46193;-82
2021/09/06 11:26:25;;;;;;;;;19.00;15.75;;;;;28.52;39.00;101418.06;5039153;28;46629;-81
2021/09/06 11:28:50;;;;;;;;;13.25;13.25;;;;;28.52;38.75;101418.06;5039877;28;45464;-80
2021/09/06 11:31:20;;;;;;;;;18.00;16.75;;;;;28.46;39.18;101403.13;5038612;28;45331;-81
2021/09/06 11:33:46;;;;;;;;;13.00;12.75;;;;;28.47;38.76;101406.69;5038489;28;45475;-80
2021/09/06 11:36:17;;;;;;;;;16.00;14.25;;;;;28.51;39.20;101408.28;5055467;28;45462;-81
2021/09/06 11:38:43;;;;;;;;;16.75;16.00;;;;;28.52;39.14;101412.69;5021728;28;45455;-82
2021/09/06 11:41:08;;;;;;;;;19.50;17.75;;;;;28.52;39.08;101413.56;5055419;28;45269;-81
2021/09/06 11:43:34;;;;;;;;;18.75;16.50;;;;;28.49;38.89;101405.63;5039501;28;45236;-82
2021/09/06 11:46:03;;;;;;;;;16.25;14.25;;;;;28.52;39.25;101408.19;5038561;28;45518;-81
2021/09/06 11:48:38;;;;;;;;;18.50;17.00;;;;;28.52;38.56;101416.22;5054577;28;45616;-82
2021/09/06 11:51:07;;;;;;;;;16.75;16.75;;;;;28.51;39.21;101411.81;5039828;28;45736;-82
2021/09/06 11:53:33;;;;;;;;;17.75;14.75;;;;;28.51;39.19;101411.81;5039907;28;45150;-82
2021/09/06 11:55:58;;;;;;;;;15.75;15.00;;;;;28.51;39.07;101411.81;5039326;28;46043;-82
2021/09/06 11:58:25;;;;;;;;;17.75;16.75;;;;;28.49;39.11;101408.31;5054942;28;45354;-80
2021/09/06 12:00:52;;;;;;;;;17.75;15.75;;;;;28.46;39.55;101404.97;5022058;28;46119;-85